createdAt,value
2023-01-09T00:00:36.354Z,0.00
2023-01-09T00:01:37.215Z,0.00
2023-01-09T00:02:38.094Z,0.00
2023-01-09T00:03:38.569Z,0.00
2023-01-09T00:04:39.417Z,0.00
2023-01-09T00:05:40.287Z,0.00
2023-01-09T00:06:41.099Z,0.00
2023-01-09T00:07:41.949Z,0.00
2023-01-09T00:08:42.810Z,0.00
2023-01-09T00:09:43.824Z,0.00
2023-01-09T00:10:44.180Z,0.00
2023-01-09T00:11:45.026Z,0.00
2023-01-09T00:12:45.888Z,0.00
2023-01-09T00:13:46.727Z,0.00
2023-01-09T00:14:47.829Z,0.00
2023-01-09T00:15:48.179Z,0.00
2023-01-09T00:16:49.122Z,0.00
2023-01-09T00:17:49.965Z,0.00
2023-01-09T00:18:50.775Z,0.00
2023-01-09T00:19:51.629Z,0.00
2023-01-09T00:20:52.499Z,0.00
2023-01-09T00:21:53.307Z,0.00
2023-01-09T00:22:54.167Z,0.00
2023-01-09T00:23:55.034Z,0.00
2023-01-09T00:24:55.873Z,0.00
2023-01-09T00:25:56.726Z,0.00
2023-01-09T00:26:57.578Z,0.00
2023-01-09T00:27:58.428Z,0.00
2023-01-09T00:28:59.293Z,0.00
2023-01-09T00:30:00.151Z,0.00
2023-01-09T00:31:01.068Z,0.00
2023-01-09T00:32:01.908Z,0.00
2023-01-09T00:33:02.740Z,0.00
2023-01-09T00:34:03.588Z,0.00
2023-01-09T00:35:04.452Z,0.00
2023-01-09T00:36:05.335Z,0.00
2023-01-09T00:37:06.142Z,0.00
2023-01-09T00:38:06.994Z,0.00
2023-01-09T00:39:07.865Z,0.00
2023-01-09T00:40:08.706Z,0.00
2023-01-09T00:41:09.559Z,0.00
2023-01-09T00:42:10.408Z,0.00
2023-01-09T00:43:11.261Z,0.00
2023-01-09T00:44:12.112Z,0.00
2023-01-09T00:45:13.320Z,0.00
2023-01-09T00:46:13.811Z,0.00
2023-01-09T00:47:14.642Z,0.00
2023-01-09T00:48:15.469Z,0.00
2023-01-09T00:49:16.334Z,0.00
2023-01-09T00:50:18.389Z,0.00
2023-01-09T00:51:17.775Z,0.00
2023-01-09T00:52:18.710Z,0.00
2023-01-09T00:53:19.556Z,0.00
2023-01-09T00:54:20.435Z,0.00
2023-01-09T00:55:21.321Z,0.00
2023-01-09T00:56:22.175Z,0.00
2023-01-09T00:57:23.028Z,0.00
2023-01-09T00:58:23.874Z,0.00
2023-01-09T00:59:24.727Z,0.00
2023-01-09T01:00:25.824Z,0.00
2023-01-09T01:01:26.340Z,0.00
2023-01-09T01:02:26.865Z,0.00
2023-01-09T01:03:27.674Z,0.00
2023-01-09T01:04:28.523Z,0.00
2023-01-09T01:05:29.388Z,0.00
2023-01-09T01:06:30.259Z,0.00
2023-01-09T01:07:31.082Z,0.00
2023-01-09T01:08:31.936Z,0.00
2023-01-09T01:09:32.791Z,0.00
2023-01-09T01:10:33.650Z,0.00
2023-01-09T01:11:34.583Z,0.00
2023-01-09T01:12:35.433Z,0.00
2023-01-09T01:13:36.283Z,0.00
2023-01-09T01:14:37.147Z,0.00
2023-01-09T01:15:38.318Z,0.00
2023-01-09T01:16:38.701Z,0.00
2023-01-09T01:17:39.394Z,0.00
2023-01-09T01:18:40.223Z,0.00
2023-01-09T01:19:41.072Z,0.00
2023-01-09T01:20:41.933Z,0.00
2023-01-09T01:21:42.807Z,0.00
2023-01-09T01:22:43.641Z,0.00
2023-01-09T01:23:44.524Z,0.00
2023-01-09T01:24:45.381Z,0.00
2023-01-09T01:25:46.243Z,0.00
2023-01-09T01:26:47.112Z,0.00
2023-01-09T01:27:47.947Z,0.00
2023-01-09T01:28:48.810Z,0.00
2023-01-09T01:29:49.661Z,0.00
2023-01-09T01:30:50.885Z,0.00
2023-01-09T01:31:51.191Z,0.00
2023-01-09T01:32:52.162Z,0.00
2023-01-09T01:33:52.937Z,0.00
2023-01-09T01:34:53.807Z,0.00
2023-01-09T01:35:54.667Z,0.00
2023-01-09T01:36:55.537Z,0.00
2023-01-09T01:37:56.333Z,0.00
2023-01-09T01:38:57.181Z,0.00
2023-01-09T01:39:58.037Z,0.00
2023-01-09T01:40:58.910Z,0.00
2023-01-09T01:41:59.769Z,0.00
2023-01-09T01:43:00.628Z,0.00
2023-01-09T01:44:01.473Z,0.00
2023-01-09T01:45:02.323Z,0.00
2023-01-09T01:46:03.281Z,0.00
2023-01-09T01:47:04.095Z,0.00
2023-01-09T01:48:04.980Z,0.00
2023-01-09T01:49:05.802Z,0.00
2023-01-09T01:50:06.665Z,0.00
2023-01-09T01:51:08.488Z,0.00
2023-01-09T01:52:08.360Z,0.00
2023-01-09T01:53:09.197Z,0.00
2023-01-09T01:54:10.061Z,0.00
2023-01-09T01:55:10.906Z,0.00
2023-01-09T01:56:11.782Z,0.00
2023-01-09T01:57:12.621Z,0.00
2023-01-09T01:58:13.470Z,0.00
2023-01-09T01:59:14.330Z,0.00
2023-01-09T02:00:15.184Z,0.00
2023-01-09T02:01:16.442Z,0.00
2023-01-09T02:02:16.861Z,0.00
2023-01-09T02:03:17.691Z,0.00
2023-01-09T02:04:18.527Z,0.00
2023-01-09T02:05:19.378Z,0.00
2023-01-09T02:06:20.324Z,0.00
2023-01-09T02:07:21.193Z,0.00
2023-01-09T02:08:22.012Z,0.00
2023-01-09T02:09:22.864Z,0.00
2023-01-09T02:10:23.722Z,0.00
2023-01-09T02:11:24.577Z,0.00
2023-01-09T02:12:25.477Z,0.00
2023-01-09T02:13:26.285Z,0.00
2023-01-09T02:14:27.141Z,0.00
2023-01-09T02:15:28.000Z,0.00
2023-01-09T02:16:28.866Z,0.00
2023-01-09T02:17:29.779Z,0.00
2023-01-09T02:18:30.587Z,0.00
2023-01-09T02:19:31.421Z,0.00
2023-01-09T02:20:32.275Z,0.00
2023-01-09T02:21:33.134Z,0.00
2023-01-09T02:22:34.011Z,0.00
2023-01-09T02:23:34.797Z,0.00
2023-01-09T02:24:35.651Z,0.00
2023-01-09T02:25:36.507Z,0.00
2023-01-09T02:26:37.369Z,0.00
2023-01-09T02:27:38.235Z,0.00
2023-01-09T02:28:39.085Z,0.00
2023-01-09T02:29:39.951Z,0.00
2023-01-09T02:30:40.798Z,0.00
2023-01-09T02:31:41.727Z,0.00
2023-01-09T02:32:42.590Z,0.00
2023-01-09T02:33:43.462Z,0.00
2023-01-09T02:34:44.354Z,0.00
2023-01-09T02:35:45.216Z,0.00
2023-01-09T02:36:46.306Z,0.00
2023-01-09T02:37:46.680Z,0.00
2023-01-09T02:38:47.507Z,0.00
2023-01-09T02:39:48.349Z,0.00
2023-01-09T02:40:49.208Z,0.00
2023-01-09T02:41:50.313Z,0.00
2023-01-09T02:42:50.673Z,0.00
2023-01-09T02:43:51.534Z,0.00
2023-01-09T02:44:52.389Z,0.00
2023-01-09T02:45:53.273Z,0.00
2023-01-09T02:46:54.107Z,0.00
2023-01-09T02:47:54.962Z,0.00
2023-01-09T02:48:55.838Z,0.00
2023-01-09T02:49:56.673Z,0.00
2023-01-09T02:50:57.531Z,0.00
2023-01-09T02:51:58.846Z,0.00
2023-01-09T02:52:59.224Z,0.00
2023-01-09T02:54:00.054Z,0.00
2023-01-09T02:55:00.904Z,0.00
2023-01-09T02:56:01.757Z,0.00
2023-01-09T02:57:02.612Z,0.00
2023-01-09T02:58:03.466Z,0.00
2023-01-09T02:59:04.321Z,0.00
2023-01-09T03:00:05.186Z,0.00
2023-01-09T03:01:06.147Z,0.00
2023-01-09T03:02:06.957Z,0.00
2023-01-09T03:03:07.875Z,0.00
2023-01-09T03:04:08.728Z,0.00
2023-01-09T03:05:09.562Z,0.00
2023-01-09T03:06:10.418Z,0.00
2023-01-09T03:07:11.281Z,0.00
2023-01-09T03:08:12.157Z,0.00
2023-01-09T03:09:12.990Z,0.00
2023-01-09T03:10:13.847Z,0.00
2023-01-09T03:11:14.716Z,0.00
2023-01-09T03:12:15.580Z,0.00
2023-01-09T03:13:16.463Z,0.00
2023-01-09T03:14:17.350Z,0.00
2023-01-09T03:15:18.180Z,0.00
2023-01-09T03:16:19.106Z,0.00
2023-01-09T03:17:19.908Z,0.00
2023-01-09T03:18:20.768Z,0.00
2023-01-09T03:19:21.639Z,0.00
2023-01-09T03:20:22.473Z,0.00
2023-01-09T03:21:23.325Z,0.00
2023-01-09T03:22:24.191Z,0.00
2023-01-09T03:23:25.056Z,0.00
2023-01-09T03:24:25.904Z,0.00
2023-01-09T03:25:26.743Z,0.00
2023-01-09T03:26:27.597Z,0.00
2023-01-09T03:27:28.463Z,0.00
2023-01-09T03:28:29.332Z,0.00
2023-01-09T03:29:30.170Z,0.00
2023-01-09T03:30:31.025Z,0.00
2023-01-09T03:31:31.988Z,0.00
2023-01-09T03:32:32.787Z,0.00
2023-01-09T03:33:33.643Z,0.00
2023-01-09T03:34:34.522Z,0.00
2023-01-09T03:35:35.354Z,0.00
2023-01-09T03:36:36.212Z,0.00
2023-01-09T03:37:37.072Z,0.00
2023-01-09T03:38:37.952Z,0.00
2023-01-09T03:39:38.767Z,0.00
2023-01-09T03:40:39.619Z,0.00
2023-01-09T03:41:40.476Z,0.00
2023-01-09T03:42:41.801Z,0.00
2023-01-09T03:43:42.158Z,0.00
2023-01-09T03:44:43.012Z,0.00
2023-01-09T03:45:43.931Z,0.00
2023-01-09T03:46:44.725Z,0.00
2023-01-09T03:47:45.589Z,0.00
2023-01-09T03:48:46.440Z,0.00
2023-01-09T03:49:47.314Z,0.00
2023-01-09T03:50:48.145Z,0.00
2023-01-09T03:51:49.014Z,0.00
2023-01-09T03:52:50.863Z,0.00
2023-01-09T03:53:50.728Z,0.00
2023-01-09T03:54:51.540Z,0.00
2023-01-09T03:55:52.407Z,0.00
2023-01-09T03:56:53.272Z,0.00
2023-01-09T03:57:54.125Z,0.00
2023-01-09T03:58:54.979Z,0.00
2023-01-09T03:59:55.837Z,0.00
2023-01-09T04:00:56.761Z,0.00
2023-01-09T04:01:57.685Z,0.00
2023-01-09T04:02:58.538Z,0.00
2023-01-09T04:03:59.426Z,0.00
2023-01-09T04:05:00.307Z,0.00
2023-01-09T04:06:01.097Z,0.00
2023-01-09T04:07:01.950Z,0.00
2023-01-09T04:08:02.813Z,0.00
2023-01-09T04:09:03.703Z,0.00
2023-01-09T04:10:04.503Z,0.00
2023-01-09T04:11:05.352Z,0.00
2023-01-09T04:12:06.208Z,0.00
2023-01-09T04:13:07.077Z,0.00
2023-01-09T04:14:07.928Z,0.00
2023-01-09T04:15:08.789Z,0.00
2023-01-09T04:16:09.708Z,0.00
2023-01-09T04:17:10.551Z,0.00
2023-01-09T04:18:11.420Z,0.00
2023-01-09T04:19:12.268Z,0.00
2023-01-09T04:20:13.143Z,0.00
2023-01-09T04:21:13.989Z,0.00
2023-01-09T04:22:14.853Z,0.00
2023-01-09T04:23:15.808Z,0.00
2023-01-09T04:24:16.691Z,0.00
2023-01-09T04:25:17.560Z,0.00
2023-01-09T04:26:18.426Z,0.00
2023-01-09T04:27:19.286Z,0.00
2023-01-09T04:28:20.298Z,0.00
2023-01-09T04:29:20.651Z,0.00
2023-01-09T04:30:21.516Z,0.00
2023-01-09T04:31:22.443Z,0.00
2023-01-09T04:32:23.269Z,0.00
2023-01-09T04:33:24.134Z,0.00
2023-01-09T04:34:24.987Z,0.00
2023-01-09T04:35:25.864Z,0.00
2023-01-09T04:36:26.698Z,0.00
2023-01-09T04:37:27.559Z,0.00
2023-01-09T04:38:28.420Z,0.00
2023-01-09T04:39:29.290Z,0.00
2023-01-09T04:40:30.111Z,0.00
2023-01-09T04:41:30.962Z,0.00
2023-01-09T04:42:31.823Z,0.00
2023-01-09T04:43:32.688Z,0.00
2023-01-09T04:44:33.542Z,0.00
2023-01-09T04:45:34.529Z,0.00
2023-01-09T04:46:35.406Z,0.00
2023-01-09T04:47:36.276Z,0.00
2023-01-09T04:48:37.136Z,0.00
2023-01-09T04:49:37.987Z,0.00
2023-01-09T04:50:38.869Z,0.00
2023-01-09T04:51:39.698Z,0.00
2023-01-09T04:52:40.551Z,0.00
2023-01-09T04:53:42.772Z,0.00
2023-01-09T04:54:42.155Z,0.00
2023-01-09T04:55:42.956Z,0.00
2023-01-09T04:56:43.817Z,0.00
2023-01-09T04:57:44.675Z,0.00
2023-01-09T04:58:45.539Z,0.00
2023-01-09T04:59:46.440Z,0.00
2023-01-09T05:00:47.328Z,0.00
2023-01-09T05:01:48.358Z,0.00
2023-01-09T05:02:48.706Z,0.00
2023-01-09T05:03:49.804Z,0.00
2023-01-09T05:04:50.150Z,0.00
2023-01-09T05:05:51.030Z,0.00
2023-01-09T05:06:51.860Z,0.00
2023-01-09T05:07:52.719Z,0.00
2023-01-09T05:08:53.580Z,0.00
2023-01-09T05:09:54.462Z,0.00
2023-01-09T05:10:55.300Z,0.00
2023-01-09T05:11:56.160Z,0.00
2023-01-09T05:12:57.008Z,0.00
2023-01-09T05:13:57.874Z,0.00
2023-01-09T05:14:58.726Z,0.00
2023-01-09T05:15:59.579Z,0.00
2023-01-09T05:17:00.452Z,0.00
2023-01-09T05:18:01.292Z,0.00
2023-01-09T05:19:02.154Z,0.00
2023-01-09T05:20:03.016Z,0.00
2023-01-09T05:21:03.881Z,0.00
2023-01-09T05:22:04.714Z,0.00
2023-01-09T05:23:05.572Z,0.00
2023-01-09T05:24:06.430Z,0.00
2023-01-09T05:25:07.302Z,0.00
2023-01-09T05:26:08.153Z,0.00
2023-01-09T05:27:08.995Z,0.00
2023-01-09T05:28:09.859Z,0.00
2023-01-09T05:29:10.754Z,0.00
2023-01-09T05:30:13.507Z,0.00
2023-01-09T05:31:12.082Z,0.00
2023-01-09T05:32:12.925Z,0.00
2023-01-09T05:33:13.780Z,0.00
2023-01-09T05:34:14.660Z,0.00
2023-01-09T05:35:15.498Z,0.00
2023-01-09T05:36:16.380Z,0.00
2023-01-09T05:37:17.208Z,0.00
2023-01-09T05:38:18.091Z,0.00
2023-01-09T05:39:18.925Z,0.00
2023-01-09T05:40:19.826Z,0.00
2023-01-09T05:41:21.756Z,0.00
2023-01-09T05:42:21.271Z,0.00
2023-01-09T05:43:22.131Z,0.00
2023-01-09T05:44:22.997Z,0.00
2023-01-09T05:45:23.996Z,0.00
2023-01-09T05:46:24.837Z,0.00
2023-01-09T05:47:25.682Z,0.00
2023-01-09T05:48:26.538Z,0.00
2023-01-09T05:49:27.400Z,0.00
2023-01-09T05:50:28.261Z,0.00
2023-01-09T05:51:29.146Z,0.00
2023-01-09T05:52:29.967Z,0.00
2023-01-09T05:53:30.829Z,0.00
2023-01-09T05:54:32.240Z,0.00
2023-01-09T05:55:32.629Z,0.00
2023-01-09T05:56:33.468Z,0.00
2023-01-09T05:57:34.326Z,0.00
2023-01-09T05:58:35.177Z,0.00
2023-01-09T05:59:36.039Z,0.00
2023-01-09T06:00:36.911Z,0.00
2023-01-09T06:01:37.749Z,0.00
2023-01-09T06:02:38.760Z,0.00
2023-01-09T06:03:39.573Z,0.00
2023-01-09T06:04:40.428Z,0.00
2023-01-09T06:05:41.282Z,0.00
2023-01-09T06:06:42.150Z,0.00
2023-01-09T06:07:42.986Z,0.00
2023-01-09T06:08:43.841Z,0.00
2023-01-09T06:09:44.700Z,0.00
2023-01-09T06:10:45.573Z,0.00
2023-01-09T06:11:46.384Z,0.00
2023-01-09T06:12:47.241Z,0.00
2023-01-09T06:13:48.267Z,0.00
2023-01-09T06:14:48.627Z,0.00
2023-01-09T06:15:49.571Z,0.00
2023-01-09T06:16:50.382Z,0.00
2023-01-09T06:17:51.237Z,0.00
2023-01-09T06:18:52.093Z,0.00
2023-01-09T06:19:52.955Z,0.00
2023-01-09T06:20:53.812Z,0.00
2023-01-09T06:21:54.695Z,0.00
2023-01-09T06:22:55.515Z,0.00
2023-01-09T06:23:56.366Z,0.00
2023-01-09T06:24:57.230Z,0.00
2023-01-09T06:25:58.102Z,0.00
2023-01-09T06:26:58.946Z,0.00
2023-01-09T06:27:59.808Z,0.00
2023-01-09T06:29:00.649Z,0.00
2023-01-09T06:30:01.521Z,0.00
2023-01-09T06:31:02.493Z,0.00
2023-01-09T06:32:03.318Z,0.00
2023-01-09T06:33:04.172Z,0.00
2023-01-09T06:34:05.030Z,0.00
2023-01-09T06:35:05.894Z,0.00
2023-01-09T06:36:06.748Z,0.00
2023-01-09T06:37:07.617Z,0.00
2023-01-09T06:38:08.453Z,4.00
2023-01-09T06:39:09.304Z,4.00
2023-01-09T06:40:10.284Z,4.00
2023-01-09T06:41:11.161Z,4.00
2023-01-09T06:42:11.987Z,4.00
2023-01-09T06:43:12.844Z,4.00
2023-01-09T06:44:13.701Z,4.00
2023-01-09T06:45:14.778Z,4.00
2023-01-09T06:46:15.192Z,4.00
2023-01-09T06:47:16.016Z,4.00
2023-01-09T06:48:16.888Z,4.00
2023-01-09T06:49:17.779Z,4.00
2023-01-09T06:50:18.779Z,4.00
2023-01-09T06:51:19.136Z,4.00
2023-01-09T06:52:20.110Z,4.00
2023-01-09T06:53:20.882Z,4.00
2023-01-09T06:54:21.757Z,4.00
2023-01-09T06:55:22.630Z,4.00
2023-01-09T06:56:23.504Z,4.00
2023-01-09T06:57:24.298Z,4.00
2023-01-09T06:58:25.154Z,4.00
2023-01-09T06:59:26.008Z,4.00
2023-01-09T07:00:26.872Z,4.00
2023-01-09T07:01:27.805Z,4.00
2023-01-09T07:02:28.643Z,4.00
2023-01-09T07:03:29.518Z,4.00
2023-01-09T07:04:30.400Z,4.00
2023-01-09T07:05:31.236Z,4.00
2023-01-09T07:06:32.085Z,4.00
2023-01-09T07:07:32.982Z,4.00
2023-01-09T07:08:33.789Z,4.00
2023-01-09T07:09:34.641Z,4.00
2023-01-09T07:10:35.552Z,8.00
2023-01-09T07:11:36.377Z,4.00
2023-01-09T07:12:37.210Z,4.00
2023-01-09T07:13:38.073Z,4.00
2023-01-09T07:14:38.927Z,8.00
2023-01-09T07:15:40.334Z,8.00
2023-01-09T07:16:40.669Z,8.00
2023-01-09T07:17:41.530Z,8.00
2023-01-09T07:18:42.389Z,12.00
2023-01-09T07:19:43.257Z,12.00
2023-01-09T07:20:44.273Z,12.00
2023-01-09T07:21:44.628Z,20.00
2023-01-09T07:22:45.498Z,20.00
2023-01-09T07:23:46.336Z,28.00
2023-01-09T07:24:47.230Z,28.00
2023-01-09T07:25:48.278Z,28.00
2023-01-09T07:26:48.660Z,36.00
2023-01-09T07:27:49.492Z,44.00
2023-01-09T07:28:50.360Z,52.00
2023-01-09T07:29:51.238Z,52.00
2023-01-09T07:30:52.274Z,64.00
2023-01-09T07:31:52.638Z,76.00
2023-01-09T07:32:53.479Z,84.00
2023-01-09T07:33:54.331Z,96.00
2023-01-09T07:34:55.185Z,104.00
2023-01-09T07:35:56.050Z,100.00
2023-01-09T07:36:56.905Z,92.00
2023-01-09T07:37:57.780Z,92.00
2023-01-09T07:38:58.616Z,92.00
2023-01-09T07:39:59.469Z,92.00
2023-01-09T07:41:00.332Z,92.00
2023-01-09T07:42:01.207Z,100.00
2023-01-09T07:43:01.984Z,116.00
2023-01-09T07:44:02.841Z,116.00
2023-01-09T07:45:03.695Z,120.00
2023-01-09T07:46:04.605Z,132.00
2023-01-09T07:47:05.434Z,152.00
2023-01-09T07:48:06.293Z,160.00
2023-01-09T07:49:07.155Z,160.00
2023-01-09T07:50:07.995Z,160.00
2023-01-09T07:51:09.273Z,168.00
2023-01-09T07:52:09.636Z,188.00
2023-01-09T07:53:10.514Z,212.00
2023-01-09T07:54:11.355Z,244.00
2023-01-09T07:55:12.214Z,256.00
2023-01-09T07:56:13.298Z,248.00
2023-01-09T07:57:13.682Z,272.00
2023-01-09T07:58:14.458Z,308.00
2023-01-09T07:59:15.312Z,324.00
2023-01-09T08:00:16.180Z,304.00
2023-01-09T08:01:17.380Z,260.00
2023-01-09T08:02:17.776Z,224.00
2023-01-09T08:03:18.589Z,212.00
2023-01-09T08:04:19.439Z,232.00
2023-01-09T08:05:20.302Z,264.00
2023-01-09T08:06:21.270Z,284.00
2023-01-09T08:07:22.148Z,320.00
2023-01-09T08:08:23.587Z,356.00
2023-01-09T08:09:23.869Z,376.00
2023-01-09T08:10:24.734Z,420.00
2023-01-09T08:11:25.770Z,500.00
2023-01-09T08:12:26.140Z,580.00
2023-01-09T08:13:26.923Z,696.00
2023-01-09T08:14:27.723Z,844.00
2023-01-09T08:15:28.570Z,1040.00
2023-01-09T08:16:29.436Z,1348.00
2023-01-09T08:17:30.295Z,1644.00
2023-01-09T08:18:31.151Z,1672.00
2023-01-09T08:19:32.021Z,1544.00
2023-01-09T08:20:32.865Z,1332.00
2023-01-09T08:21:33.767Z,1328.00
2023-01-09T08:22:34.624Z,1496.00
2023-01-09T08:23:35.497Z,1656.00
2023-01-09T08:24:36.341Z,1776.00
2023-01-09T08:25:37.212Z,1944.00
2023-01-09T08:26:38.277Z,2152.00
2023-01-09T08:27:38.688Z,2348.00
2023-01-09T08:28:39.480Z,2364.00
2023-01-09T08:29:40.329Z,2220.00
2023-01-09T08:30:41.207Z,2300.00
2023-01-09T08:31:42.361Z,2484.00
2023-01-09T08:32:42.690Z,2708.00
2023-01-09T08:33:43.539Z,2688.00
2023-01-09T08:34:44.437Z,2536.00
2023-01-09T08:35:45.326Z,2348.00
2023-01-09T08:36:46.268Z,2072.00
2023-01-09T08:37:46.623Z,1888.00
2023-01-09T08:38:47.529Z,1720.00
2023-01-09T08:39:48.810Z,1460.00
2023-01-09T08:40:49.128Z,1140.00
2023-01-09T08:41:50.261Z,1308.00
2023-01-09T08:42:50.652Z,1392.00
2023-01-09T08:43:51.467Z,1292.00
2023-01-09T08:44:52.323Z,1552.00
2023-01-09T08:45:53.181Z,1952.00
2023-01-09T08:46:54.270Z,2248.00
2023-01-09T08:47:54.618Z,2656.00
2023-01-09T08:48:55.485Z,3080.00
2023-01-09T08:49:56.341Z,3372.00
2023-01-09T08:50:57.202Z,3860.00
2023-01-09T08:51:58.269Z,5320.00
2023-01-09T08:52:58.627Z,6756.00
2023-01-09T08:53:59.520Z,10072.00
2023-01-09T08:55:00.357Z,23424.00
2023-01-09T08:56:01.220Z,12828.00
2023-01-09T08:57:02.291Z,7032.00
2023-01-09T08:58:02.669Z,5868.00
2023-01-09T08:59:03.550Z,3968.00
2023-01-09T09:00:04.401Z,2908.00
2023-01-09T09:01:05.273Z,3376.00
2023-01-09T09:02:06.277Z,4608.00
2023-01-09T09:03:06.711Z,5756.00
2023-01-09T09:04:07.527Z,3988.00
2023-01-09T09:05:08.379Z,1764.00
2023-01-09T09:06:09.242Z,1128.00
2023-01-09T09:07:10.264Z,1048.00
2023-01-09T09:08:10.650Z,1088.00
2023-01-09T09:09:11.536Z,1136.00
2023-01-09T09:10:12.397Z,1336.00
2023-01-09T09:11:13.253Z,1484.00
2023-01-09T09:12:14.268Z,1420.00
2023-01-09T09:13:14.687Z,1412.00
2023-01-09T09:14:15.488Z,1392.00
2023-01-09T09:15:16.415Z,1420.00
2023-01-09T09:16:17.270Z,1552.00
2023-01-09T09:17:18.270Z,1812.00
2023-01-09T09:18:18.718Z,1796.00
2023-01-09T09:19:19.577Z,1584.00
2023-01-09T09:20:20.428Z,1532.00
2023-01-09T09:21:21.284Z,1508.00
2023-01-09T09:22:22.261Z,1420.00
2023-01-09T09:23:23.143Z,1336.00
2023-01-09T09:24:24.023Z,1368.00
2023-01-09T09:25:24.854Z,1492.00
2023-01-09T09:26:25.716Z,1608.00
2023-01-09T09:27:26.766Z,1584.00
2023-01-09T09:28:27.150Z,1508.00
2023-01-09T09:29:27.981Z,1452.00
2023-01-09T09:30:28.851Z,1448.00
2023-01-09T09:31:29.800Z,1432.00
2023-01-09T09:32:30.767Z,1308.00
2023-01-09T09:33:31.633Z,1208.00
2023-01-09T09:34:32.496Z,1168.00
2023-01-09T09:35:33.348Z,1192.00
2023-01-09T09:36:34.275Z,1300.00
2023-01-09T09:37:35.260Z,1344.00
2023-01-09T09:38:35.619Z,1332.00
2023-01-09T09:39:36.575Z,1220.00
2023-01-09T09:40:37.415Z,1348.00
2023-01-09T09:41:38.277Z,1584.00
2023-01-09T09:42:39.257Z,1588.00
2023-01-09T09:43:42.053Z,1324.00
2023-01-09T09:44:43.895Z,1192.00
2023-01-09T09:45:42.738Z,1112.00
2023-01-09T09:46:42.674Z,968.00
2023-01-09T09:47:43.766Z,840.00
2023-01-09T09:48:44.115Z,824.00
2023-01-09T09:49:44.986Z,864.00
2023-01-09T09:50:45.839Z,928.00
2023-01-09T09:51:46.707Z,1152.00
2023-01-09T09:52:47.774Z,1512.00
2023-01-09T09:53:48.117Z,1764.00
2023-01-09T09:54:48.991Z,1740.00
2023-01-09T09:55:49.821Z,1888.00
2023-01-09T09:56:50.677Z,1740.00
2023-01-09T09:57:51.771Z,1316.00
2023-01-09T09:58:52.160Z,1116.00
2023-01-09T09:59:53.019Z,1080.00
2023-01-09T10:00:53.878Z,1108.00
2023-01-09T10:01:54.742Z,1188.00
2023-01-09T10:02:55.792Z,1332.00
2023-01-09T10:03:56.156Z,1620.00
2023-01-09T10:04:56.983Z,1760.00
2023-01-09T10:05:57.864Z,1896.00
2023-01-09T10:06:58.729Z,1784.00
2023-01-09T10:08:11.558Z,1200.00
2023-01-09T10:09:01.521Z,1036.00
2023-01-09T10:10:01.401Z,1144.00
2023-01-09T10:11:02.255Z,1196.00
2023-01-09T10:12:03.106Z,1164.00
2023-01-09T10:13:04.256Z,1124.00
2023-01-09T10:14:06.396Z,1120.00
2023-01-09T10:15:05.243Z,1156.00
2023-01-09T10:16:06.225Z,1400.00
2023-01-09T10:17:07.049Z,1648.00
2023-01-09T10:18:08.255Z,2192.00
2023-01-09T10:19:08.631Z,2520.00
2023-01-09T10:20:09.482Z,2076.00
2023-01-09T10:21:10.338Z,2076.00
2023-01-09T10:22:11.201Z,2180.00
2023-01-09T10:23:12.265Z,2344.00
2023-01-09T10:24:12.619Z,2844.00
2023-01-09T10:25:13.503Z,3472.00
2023-01-09T10:26:14.336Z,3544.00
2023-01-09T10:27:15.192Z,3556.00
2023-01-09T10:28:16.254Z,21376.00
2023-01-09T10:29:16.653Z,32000.00
2023-01-09T10:30:17.450Z,26240.00
2023-01-09T10:31:18.354Z,6932.00
2023-01-09T10:32:19.151Z,3928.00
2023-01-09T10:33:20.254Z,2992.00
2023-01-09T10:34:20.615Z,2688.00
2023-01-09T10:35:21.471Z,2488.00
2023-01-09T10:36:22.330Z,2520.00
2023-01-09T10:37:23.208Z,2768.00
2023-01-09T10:38:24.269Z,2984.00
2023-01-09T10:39:24.627Z,3028.00
2023-01-09T10:40:25.568Z,3172.00
2023-01-09T10:41:26.377Z,3132.00
2023-01-09T10:42:27.242Z,2724.00
2023-01-09T10:43:28.279Z,2340.00
2023-01-09T10:44:28.654Z,2116.00
2023-01-09T10:45:29.494Z,1956.00
2023-01-09T10:46:30.435Z,1948.00
2023-01-09T10:47:31.284Z,2052.00
2023-01-09T10:48:32.262Z,1984.00
2023-01-09T10:49:33.122Z,1784.00
2023-01-09T10:50:33.998Z,1696.00
2023-01-09T10:51:34.831Z,1584.00
2023-01-09T10:52:35.709Z,1560.00
2023-01-09T10:53:36.756Z,1848.00
2023-01-09T10:54:37.125Z,2188.00
2023-01-09T10:55:37.986Z,2580.00
2023-01-09T10:56:38.833Z,3048.00
2023-01-09T10:57:39.694Z,3944.00
2023-01-09T10:58:40.260Z,5244.00
2023-01-09T10:59:41.156Z,7396.00
2023-01-09T11:00:41.949Z,5764.00
2023-01-09T11:01:42.806Z,4676.00
2023-01-09T11:02:43.686Z,4296.00
2023-01-09T11:03:44.808Z,4108.00
2023-01-09T11:04:45.141Z,3164.00
2023-01-09T11:05:45.996Z,2304.00
2023-01-09T11:06:46.870Z,1840.00
2023-01-09T11:07:47.730Z,1560.00
2023-01-09T11:08:49.248Z,1416.00
2023-01-09T11:09:49.112Z,1376.00
2023-01-09T11:10:50.002Z,1372.00
2023-01-09T11:11:52.695Z,1400.00
2023-01-09T11:12:51.629Z,1760.00
2023-01-09T11:13:52.752Z,2080.00
2023-01-09T11:14:53.136Z,2124.00
2023-01-09T11:15:54.016Z,2248.00
2023-01-09T11:16:54.868Z,2268.00
2023-01-09T11:17:55.729Z,2260.00
2023-01-09T11:18:56.749Z,2376.00
2023-01-09T11:19:57.120Z,2428.00
2023-01-09T11:20:58.014Z,2424.00
2023-01-09T11:21:58.879Z,2472.00
2023-01-09T11:22:59.745Z,2508.00
2023-01-09T11:24:00.760Z,2468.00
2023-01-09T11:25:01.169Z,2392.00
2023-01-09T11:26:02.068Z,2264.00
2023-01-09T11:27:02.914Z,1960.00
2023-01-09T11:28:03.774Z,1924.00
2023-01-09T11:29:04.761Z,2272.00
2023-01-09T11:30:05.181Z,2720.00
2023-01-09T11:31:06.010Z,2948.00
2023-01-09T11:32:06.855Z,3052.00
2023-01-09T11:33:07.710Z,2888.00
2023-01-09T11:34:08.745Z,2824.00
2023-01-09T11:35:09.135Z,2816.00
2023-01-09T11:36:09.977Z,2764.00
2023-01-09T11:37:10.857Z,2784.00
2023-01-09T11:38:11.701Z,2792.00
2023-01-09T11:39:12.746Z,2800.00
2023-01-09T11:40:13.112Z,2784.00
2023-01-09T11:41:13.986Z,2708.00
2023-01-09T11:42:15.182Z,2588.00
2023-01-09T11:43:15.554Z,2424.00
2023-01-09T11:44:16.803Z,2272.00
2023-01-09T11:45:17.142Z,2240.00
2023-01-09T11:46:18.072Z,2284.00
2023-01-09T11:47:18.920Z,2380.00
2023-01-09T11:48:19.780Z,2460.00
2023-01-09T11:49:20.747Z,2380.00
2023-01-09T11:50:21.624Z,2380.00
2023-01-09T11:51:22.465Z,2512.00
2023-01-09T11:52:23.323Z,2656.00
2023-01-09T11:53:24.182Z,2616.00
2023-01-09T11:54:25.044Z,2624.00
2023-01-09T11:55:32.072Z,2440.00
2023-01-09T11:56:27.695Z,2200.00
2023-01-09T11:57:27.528Z,2104.00
2023-01-09T11:58:28.380Z,2088.00
2023-01-09T11:59:29.792Z,2216.00
2023-01-09T12:00:30.164Z,2056.00
2023-01-09T12:01:30.957Z,1964.00
2023-01-09T12:02:31.829Z,2108.00
2023-01-09T12:03:32.667Z,2068.00
2023-01-09T12:04:33.752Z,2084.00
2023-01-09T12:05:34.134Z,2148.00
2023-01-09T12:06:34.988Z,2308.00
2023-01-09T12:07:35.902Z,2640.00
2023-01-09T12:08:36.720Z,2700.00
2023-01-09T12:09:37.597Z,2520.00
2023-01-09T12:10:38.449Z,2396.00
2023-01-09T12:11:39.317Z,2456.00
2023-01-09T12:12:40.159Z,2564.00
2023-01-09T12:13:41.003Z,2760.00
2023-01-09T12:14:42.241Z,3956.00
2023-01-09T12:15:42.626Z,4348.00
2023-01-09T12:16:44.330Z,4764.00
2023-01-09T12:17:44.150Z,4140.00
2023-01-09T12:18:45.007Z,3608.00
2023-01-09T12:19:46.244Z,3352.00
2023-01-09T12:20:46.616Z,3016.00
2023-01-09T12:21:47.478Z,2848.00
2023-01-09T12:22:48.356Z,2732.00
2023-01-09T12:23:49.199Z,2504.00
2023-01-09T12:24:50.243Z,2328.00
2023-01-09T12:25:50.596Z,2072.00
2023-01-09T12:26:51.474Z,2424.00
2023-01-09T12:27:52.316Z,2312.00
2023-01-09T12:28:53.197Z,2676.00
2023-01-09T12:29:54.259Z,2380.00
2023-01-09T12:30:54.628Z,2244.00
2023-01-09T12:31:55.564Z,2208.00
2023-01-09T12:32:56.376Z,2032.00
2023-01-09T12:33:57.230Z,1836.00
2023-01-09T12:34:58.253Z,1692.00
2023-01-09T12:35:58.616Z,1500.00
2023-01-09T12:36:59.654Z,1608.00
2023-01-09T12:38:00.038Z,1616.00
2023-01-09T12:39:00.884Z,1672.00
2023-01-09T12:40:02.237Z,1752.00
2023-01-09T12:41:02.609Z,1868.00
2023-01-09T12:42:03.505Z,2016.00
2023-01-09T12:43:04.329Z,1784.00
2023-01-09T12:44:05.183Z,1576.00
2023-01-09T12:45:06.238Z,1604.00
2023-01-09T12:46:06.774Z,1688.00
2023-01-09T12:47:07.091Z,1580.00
2023-01-09T12:48:07.959Z,1308.00
2023-01-09T12:49:08.818Z,1224.00
2023-01-09T12:50:09.686Z,1116.00
2023-01-09T12:51:10.542Z,1084.00
2023-01-09T12:52:11.401Z,1096.00
2023-01-09T12:53:12.274Z,1136.00
2023-01-09T12:54:13.130Z,1292.00
2023-01-09T12:55:13.993Z,1516.00
2023-01-09T12:56:14.876Z,1552.00
2023-01-09T12:57:15.768Z,1356.00
2023-01-09T12:58:16.606Z,1196.00